Time;durP1;ratioP1;P1;durP2;ratioP2;P2;SDS_P1;SDS_P2;PMS_P1;PMS_P2;Temp;Humidity;BMP_temperature;BMP_pressure;BME280_temperature;BME280_humidity;BME280_pressure;Samples;Min_cycle;Max_cycle;Signal;HPM_P1;HPM_P2
2021/12/26 00:01:58;;;;;;;19.90;8.00;;;-6.10;99.90;;;;;;5119765;28;20265;-53
2021/12/26 00:04:29;;;;;;;11.60;7.13;;;-6.10;99.90;;;;;;5124248;28;20205;-51
2021/12/26 00:07:00;;;;;;;20.53;9.10;;;-6.10;99.90;;;;;;5129424;28;20553;-51
2021/12/26 00:09:31;;;;;;;12.67;7.60;;;-6.10;99.90;;;;;;5106685;28;20194;-49
2021/12/26 00:12:01;;;;;;;17.10;9.70;;;-6.10;99.90;;;;;;5126057;28;20456;-51
2021/12/26 00:14:32;;;;;;;24.10;9.33;;;-6.00;99.90;;;;;;5110303;29;20268;-49
2021/12/26 00:17:03;;;;;;;16.70;9.30;;;-6.00;99.90;;;;;;5125614;28;20190;-51
2021/12/26 00:19:33;;;;;;;20.80;9.53;;;-6.00;99.90;;;;;;5106738;29;20194;-50
2021/12/26 00:22:04;;;;;;;22.80;10.43;;;-5.90;99.90;;;;;;5122861;28;20261;-52
2021/12/26 00:24:35;;;;;;;30.03;11.00;;;-5.90;99.90;;;;;;5125529;28;20255;-51
2021/12/26 00:27:05;;;;;;;21.97;11.10;;;-5.90;99.90;;;;;;5127399;28;20178;-52
2021/12/26 00:29:36;;;;;;;16.23;10.80;;;-5.90;99.90;;;;;;5124178;28;20527;-51
2021/12/26 00:32:07;;;;;;;27.53;12.40;;;-5.90;99.90;;;;;;5125401;28;20193;-53
2021/12/26 00:34:38;;;;;;;22.87;11.00;;;-5.90;99.90;;;;;;5108427;28;20182;-52
2021/12/26 00:37:08;;;;;;;17.47;10.30;;;-6.00;99.90;;;;;;5128381;28;20563;-52
2021/12/26 00:39:39;;;;;;;23.60;11.70;;;-6.00;99.90;;;;;;5124994;28;20276;-53
2021/12/26 00:42:10;;;;;;;19.73;11.03;;;-6.00;99.90;;;;;;5108012;29;20689;-52
2021/12/26 00:44:40;;;;;;;25.20;10.97;;;-6.10;99.90;;;;;;5107782;28;20214;-53
2021/12/26 00:47:12;;;;;;;21.20;9.43;;;-6.10;99.90;;;;;;5125453;28;20178;-52
2021/12/26 00:49:43;;;;;;;25.97;11.23;;;-6.20;99.90;;;;;;5116645;28;20238;-53
2021/12/26 00:52:17;;;;;;;26.80;10.73;;;-6.20;99.90;;;;;;5124619;28;20513;-50
2021/12/26 00:54:47;;;;;;;18.17;11.03;;;-6.20;99.90;;;;;;5122586;28;20233;-50
2021/12/26 00:57:18;;;;;;;24.00;12.17;;;-6.30;99.90;;;;;;5108240;28;20430;-52
2021/12/26 00:59:49;;;;;;;25.40;12.30;;;-6.30;99.90;;;;;;5123234;28;20758;-52
2021/12/26 01:02:19;;;;;;;24.90;12.67;;;-6.30;99.90;;;;;;5107832;29;20194;-51
2021/12/26 01:04:50;;;;;;;25.20;11.43;;;-6.30;99.90;;;;;;5100175;28;20209;-54
2021/12/26 01:07:34;;;;;;;27.70;11.20;;;-6.30;99.90;;;;;;5101288;28;20182;-51
2021/12/26 01:10:05;;;;;;;27.30;12.00;;;-6.30;99.90;;;;;;5112531;29;20292;-52
2021/12/26 01:12:38;;;;;;;27.00;12.43;;;-6.30;99.90;;;;;;5111374;29;20425;-52
2021/12/26 01:15:10;;;;;;;21.67;12.03;;;-6.30;99.90;;;;;;5108108;29;20445;-53
2021/12/26 01:17:44;;;;;;;22.60;12.40;;;-6.30;99.90;;;;;;5125803;28;20441;-50
2021/12/26 01:20:26;;;;;;;24.70;12.70;;;-6.30;99.90;;;;;;5125820;28;20520;-51
2021/12/26 01:22:57;;;;;;;27.90;12.87;;;-6.20;99.90;;;;;;5131508;28;20475;-51
2021/12/26 01:25:27;;;;;;;34.07;13.03;;;-6.30;99.90;;;;;;5124745;28;20442;-51
2021/12/26 01:27:58;;;;;;;30.07;14.17;;;-6.30;99.90;;;;;;5127897;28;20703;-54
2021/12/26 01:30:28;;;;;;;25.97;13.13;;;-6.30;99.90;;;;;;5128373;28;20194;-53
2021/12/26 01:32:59;;;;;;;23.67;12.50;;;-6.30;99.90;;;;;;5107662;28;20191;-51
2021/12/26 01:35:30;;;;;;;25.13;12.80;;;-6.30;99.90;;;;;;5129833;28;20529;-51
2021/12/26 01:38:00;;;;;;;21.50;12.70;;;-6.30;99.90;;;;;;5112670;28;20189;-51
2021/12/26 01:40:35;;;;;;;26.30;14.07;;;-6.30;99.90;;;;;;5164924;23;20236;-51
2021/12/26 01:43:05;;;;;;;32.17;14.00;;;-6.30;99.90;;;;;;5140347;28;20244;-50
2021/12/26 01:45:36;;;;;;;26.73;12.93;;;-6.30;99.90;;;;;;5142255;28;20444;-50
2021/12/26 01:48:08;;;;;;;22.43;11.40;;;-6.30;99.90;;;;;;5152614;28;20193;-51
2021/12/26 01:50:39;;;;;;;26.17;10.87;;;-6.40;99.90;;;;;;5148355;28;20201;-52
2021/12/26 01:53:11;;;;;;;24.40;11.43;;;-6.40;99.90;;;;;;5122772;28;20442;-51
2021/12/26 01:55:46;;;;;;;20.50;10.93;;;-6.40;99.90;;;;;;5146558;28;20825;-51
2021/12/26 01:58:23;;;;;;;15.53;10.07;;;-6.40;99.90;;;;;;5139490;28;20433;-49
2021/12/26 02:00:58;;;;;;;18.77;10.13;;;-6.40;99.90;;;;;;5139126;28;20445;-51
2021/12/26 02:03:28;;;;;;;24.00;11.30;;;-6.30;99.90;;;;;;5128854;28;20468;-50
2021/12/26 02:05:59;;;;;;;18.63;9.70;;;-6.40;99.90;;;;;;5125938;28;20604;-52
2021/12/26 02:08:30;;;;;;;15.73;8.90;;;-6.40;99.90;;;;;;5135206;28;20213;-50
2021/12/26 02:11:02;;;;;;;19.50;11.03;;;-6.50;99.90;;;;;;5127009;28;20317;-51
2021/12/26 02:13:34;;;;;;;19.50;9.57;;;-6.60;99.90;;;;;;5144786;28;20193;-52
2021/12/26 02:16:09;;;;;;;18.97;10.50;;;-6.60;99.90;;;;;;5125384;28;20437;-51
2021/12/26 02:18:40;;;;;;;25.97;10.73;;;-6.60;99.90;;;;;;5123738;28;20536;-51
2021/12/26 02:21:42;;;;;;;23.00;10.30;;;-6.70;99.90;;;;;;5133788;28;20579;-51
2021/12/26 02:24:22;;;;;;;23.93;11.63;;;-6.60;99.90;;;;;;5131294;28;20526;-51
2021/12/26 02:29:47;;;;;;;17.57;10.50;;;-6.70;99.90;;;;;;5135821;28;20475;-52
2021/12/26 02:32:17;;;;;;;20.23;11.33;;;-6.70;99.90;;;;;;5141872;28;20459;-51
2021/12/26 02:34:48;;;;;;;14.93;9.50;;;-6.70;99.90;;;;;;5141937;28;20226;-50
2021/12/26 02:37:19;;;;;;;12.70;9.23;;;-6.70;99.90;;;;;;5138657;28;20552;-51
2021/12/26 02:39:49;;;;;;;20.57;10.50;;;-6.70;99.90;;;;;;5133752;28;20472;-51
2021/12/26 02:42:21;;;;;;;16.13;9.63;;;-6.70;99.90;;;;;;5135764;28;20677;-51
2021/12/26 02:44:52;;;;;;;17.93;9.87;;;-6.70;99.90;;;;;;5137010;28;20244;-50
2021/12/26 02:47:31;;;;;;;17.20;10.23;;;-6.80;99.90;;;;;;5145019;28;20807;-51
2021/12/26 02:50:05;;;;;;;20.83;10.77;;;-6.70;99.90;;;;;;5126459;28;20452;-51
2021/12/26 02:52:36;;;;;;;29.70;12.30;;;-6.80;99.90;;;;;;5146939;28;20468;-51
2021/12/26 02:55:08;;;;;;;20.20;11.13;;;-6.80;99.90;;;;;;5146480;28;20514;-51
2021/12/26 02:57:39;;;;;;;17.70;10.00;;;-6.80;99.90;;;;;;5126268;28;20189;-50
2021/12/26 03:00:12;;;;;;;20.53;11.10;;;-6.90;99.90;;;;;;5141955;28;20496;-51
2021/12/26 03:02:45;;;;;;;24.50;13.10;;;-6.90;99.90;;;;;;5139308;28;20871;-50
2021/12/26 03:05:17;;;;;;;26.87;12.13;;;-6.90;99.90;;;;;;5127423;28;20440;-50
2021/12/26 03:07:48;;;;;;;22.13;12.67;;;-6.90;99.90;;;;;;5145735;28;20443;-52
2021/12/26 03:10:22;;;;;;;21.30;12.10;;;-6.90;99.90;;;;;;5145435;28;20539;-52
2021/12/26 03:12:55;;;;;;;25.57;11.37;;;-6.90;99.90;;;;;;5096843;29;20476;-52
2021/12/26 03:15:27;;;;;;;27.63;12.33;;;-6.90;99.90;;;;;;5124601;28;20435;-52
2021/12/26 03:17:59;;;;;;;28.00;11.70;;;-6.80;99.90;;;;;;5142206;28;20481;-51
2021/12/26 03:20:34;;;;;;;20.20;10.83;;;-6.80;99.90;;;;;;5132045;28;20552;-51
2021/12/26 03:23:07;;;;;;;22.77;11.57;;;-6.80;99.90;;;;;;5144834;28;20491;-53
2021/12/26 03:25:37;;;;;;;22.43;11.53;;;-6.80;99.90;;;;;;5125969;28;20437;-50
2021/12/26 03:28:09;;;;;;;22.97;12.43;;;-6.90;99.90;;;;;;5140038;28;20437;-50
2021/12/26 03:30:40;;;;;;;21.10;11.53;;;-6.90;99.90;;;;;;5127509;28;20228;-51
2021/12/26 03:33:12;;;;;;;25.27;11.57;;;-6.80;99.90;;;;;;5143902;28;20448;-49
2021/12/26 03:35:43;;;;;;;17.97;11.30;;;-6.80;99.90;;;;;;5146890;28;20483;-49
2021/12/26 03:38:15;;;;;;;18.57;11.30;;;-6.80;99.90;;;;;;5127560;28;20912;-51
2021/12/26 03:40:47;;;;;;;22.50;11.80;;;-6.90;99.90;;;;;;5142382;28;20275;-50
2021/12/26 03:43:18;;;;;;;18.20;11.00;;;-6.90;99.90;;;;;;5126543;28;20514;-51
2021/12/26 03:45:50;;;;;;;17.90;10.20;;;-6.90;99.90;;;;;;5121657;28;20437;-50
2021/12/26 03:48:23;;;;;;;19.13;11.40;;;-6.90;99.90;;;;;;5144433;28;20433;-51
2021/12/26 03:50:55;;;;;;;21.60;11.50;;;-6.90;99.90;;;;;;5138902;28;20475;-51
2021/12/26 03:53:25;;;;;;;16.80;10.17;;;-6.90;99.90;;;;;;5145029;28;20917;-51
2021/12/26 03:55:56;;;;;;;16.10;10.43;;;-6.90;99.90;;;;;;5127898;28;20440;-51
2021/12/26 03:58:27;;;;;;;18.70;11.40;;;-6.90;99.90;;;;;;5120338;28;20269;-50
2021/12/26 04:00:58;;;;;;;23.47;11.90;;;-6.90;99.90;;;;;;5122370;28;20186;-50
2021/12/26 04:03:28;;;;;;;22.60;11.03;;;-7.00;99.90;;;;;;5133445;28;20492;-49
2021/12/26 04:05:59;;;;;;;21.40;12.13;;;-7.00;99.90;;;;;;5126862;28;20184;-52
2021/12/26 04:08:29;;;;;;;23.93;12.20;;;-7.00;99.90;;;;;;5136887;28;20228;-52
2021/12/26 04:11:00;;;;;;;18.13;10.97;;;-7.00;99.90;;;;;;5142210;28;20186;-51
2021/12/26 04:13:31;;;;;;;25.00;13.40;;;-7.00;99.90;;;;;;5146274;28;20226;-52
2021/12/26 04:16:02;;;;;;;23.10;11.83;;;-7.10;99.90;;;;;;5140029;28;20185;-51
2021/12/26 04:18:33;;;;;;;25.57;11.47;;;-7.10;99.90;;;;;;5132210;28;20266;-51
2021/12/26 04:21:05;;;;;;;25.93;12.93;;;-7.10;99.90;;;;;;5135515;28;20435;-51
2021/12/26 04:23:36;;;;;;;29.07;14.30;;;-7.10;99.90;;;;;;5139985;28;20495;-51
2021/12/26 04:26:06;;;;;;;22.90;11.70;;;-7.10;99.90;;;;;;5137283;28;20468;-52
2021/12/26 04:28:37;;;;;;;19.63;11.43;;;-7.10;99.90;;;;;;5121169;28;20655;-52
2021/12/26 04:31:07;;;;;;;18.60;11.20;;;-7.10;99.90;;;;;;5128355;28;20666;-52
2021/12/26 04:33:38;;;;;;;22.33;11.70;;;-7.10;99.90;;;;;;5124710;28;20193;-51
2021/12/26 04:36:10;;;;;;;19.10;11.30;;;-7.10;99.90;;;;;;5144545;28;20217;-51
2021/12/26 04:38:41;;;;;;;23.13;12.60;;;-7.10;99.90;;;;;;5144329;28;20579;-51
2021/12/26 04:41:12;;;;;;;21.40;10.87;;;-7.10;99.90;;;;;;5125361;28;20240;-51
2021/12/26 04:43:43;;;;;;;27.37;12.50;;;-7.20;99.90;;;;;;5142362;28;20965;-51
2021/12/26 04:46:14;;;;;;;19.30;11.67;;;-7.20;99.90;;;;;;5142671;28;20204;-52
2021/12/26 04:48:45;;;;;;;20.40;11.23;;;-7.10;99.90;;;;;;5136764;28;20201;-52
2021/12/26 04:51:16;;;;;;;19.60;10.90;;;-7.10;99.90;;;;;;5143804;28;20437;-51
2021/12/26 04:53:46;;;;;;;22.57;12.70;;;-7.10;99.90;;;;;;5144957;28;20524;-51
2021/12/26 04:56:17;;;;;;;19.43;11.83;;;-7.20;99.90;;;;;;5120627;28;20193;-52
2021/12/26 04:58:47;;;;;;;19.77;11.17;;;-7.10;99.90;;;;;;5130881;28;20209;-51
2021/12/26 05:01:18;;;;;;;19.27;10.27;;;-7.20;99.90;;;;;;5147178;28;20641;-51
2021/12/26 05:03:48;;;;;;;20.70;9.90;;;-7.10;99.90;;;;;;5142948;28;20213;-50
2021/12/26 05:06:19;;;;;;;17.77;9.70;;;-7.10;99.90;;;;;;5130056;28;20174;-50
2021/12/26 05:08:53;;;;;;;23.93;11.30;;;-7.10;99.90;;;;;;5125747;28;20202;-50
2021/12/26 05:11:23;;;;;;;20.37;10.27;;;-7.10;99.90;;;;;;5137888;28;20269;-50
2021/12/26 05:13:54;;;;;;;26.07;9.90;;;-7.10;99.90;;;;;;5138607;28;20877;-50
2021/12/26 05:16:25;;;;;;;15.80;9.20;;;-7.10;99.90;;;;;;5143875;28;20182;-50
2021/12/26 05:18:55;;;;;;;18.83;9.60;;;-7.10;99.90;;;;;;5133447;28;20549;-51
2021/12/26 05:21:26;;;;;;;15.43;9.40;;;-7.20;99.90;;;;;;5151311;28;20189;-51
2021/12/26 05:23:56;;;;;;;19.90;10.07;;;-7.20;99.90;;;;;;5146876;28;20212;-50
2021/12/26 05:26:27;;;;;;;15.70;9.17;;;-7.10;99.90;;;;;;5148031;28;20641;-50
2021/12/26 05:28:57;;;;;;;17.53;8.10;;;-7.20;99.90;;;;;;5128382;28;20206;-49
2021/12/26 05:31:28;;;;;;;13.57;8.90;;;-7.20;99.90;;;;;;5129180;28;20622;-50
2021/12/26 05:33:58;;;;;;;20.20;9.57;;;-7.20;99.90;;;;;;5125782;28;20687;-51
2021/12/26 05:36:29;;;;;;;17.90;9.50;;;-7.30;99.90;;;;;;5135356;28;20211;-51
2021/12/26 05:38:59;;;;;;;26.73;9.47;;;-7.30;99.90;;;;;;5147481;28;20596;-49
2021/12/26 05:41:32;;;;;;;19.17;9.30;;;-7.30;99.90;;;;;;5126345;28;20189;-49
2021/12/26 05:44:03;;;;;;;21.53;9.77;;;-7.30;99.90;;;;;;5129267;28;20201;-49
2021/12/26 05:46:34;;;;;;;22.30;10.30;;;-7.40;99.90;;;;;;5150941;28;20908;-50
2021/12/26 05:49:05;;;;;;;20.77;10.07;;;-7.40;99.90;;;;;;5129871;28;20452;-50
2021/12/26 05:51:35;;;;;;;24.43;10.67;;;-7.40;99.90;;;;;;5130465;28;20524;-50
2021/12/26 05:54:06;;;;;;;13.10;9.07;;;-7.50;99.90;;;;;;5129452;28;20291;-49
2021/12/26 05:56:37;;;;;;;23.80;9.37;;;-7.40;99.90;;;;;;5147655;28;20196;-49
2021/12/26 05:59:08;;;;;;;21.93;9.87;;;-7.40;99.90;;;;;;5141729;28;20678;-51
2021/12/26 06:01:38;;;;;;;21.80;11.17;;;-7.40;99.90;;;;;;5141482;28;20178;-52
2021/12/26 06:04:09;;;;;;;16.93;9.80;;;-7.40;99.90;;;;;;5139371;28;20245;-49
2021/12/26 06:06:44;;;;;;;21.87;10.30;;;-7.40;99.90;;;;;;5132827;28;20230;-50
2021/12/26 06:09:14;;;;;;;24.80;9.40;;;-7.40;99.90;;;;;;5140505;28;20611;-50
2021/12/26 06:11:45;;;;;;;18.33;9.50;;;-7.50;99.90;;;;;;5132119;28;20523;-50
2021/12/26 06:14:16;;;;;;;16.00;8.67;;;-7.50;99.90;;;;;;5137118;28;20256;-50
2021/12/26 06:16:47;;;;;;;16.30;9.67;;;-7.50;99.90;;;;;;5122100;28;20183;-50
2021/12/26 06:19:18;;;;;;;24.07;10.50;;;-7.50;99.90;;;;;;5140763;28;20208;-50
2021/12/26 06:21:48;;;;;;;15.67;8.67;;;-7.50;99.90;;;;;;5144139;28;20961;-50
2021/12/26 06:24:19;;;;;;;17.53;9.37;;;-7.60;99.90;;;;;;5142026;28;20247;-50
2021/12/26 06:26:49;;;;;;;18.47;9.40;;;-7.60;99.90;;;;;;5146019;28;20188;-52
2021/12/26 06:29:20;;;;;;;16.57;10.00;;;-7.60;99.90;;;;;;5136745;28;20206;-50
2021/12/26 06:31:50;;;;;;;21.77;9.63;;;-7.70;99.90;;;;;;5142629;28;20181;-49
2021/12/26 06:34:21;;;;;;;17.50;9.17;;;-7.70;99.90;;;;;;5143028;28;20185;-50
2021/12/26 06:36:51;;;;;;;16.20;8.30;;;-7.70;99.90;;;;;;5141491;28;20198;-49
2021/12/26 06:39:22;;;;;;;17.10;8.63;;;-7.80;99.90;;;;;;5134612;28;20218;-51
2021/12/26 06:41:52;;;;;;;12.13;8.00;;;-7.80;99.90;;;;;;5144800;28;20189;-49
2021/12/26 06:44:23;;;;;;;14.23;8.67;;;-7.80;99.90;;;;;;5144313;28;20582;-49
2021/12/26 06:46:54;;;;;;;13.63;8.73;;;-7.80;99.90;;;;;;5140758;28;20178;-50
2021/12/26 06:49:24;;;;;;;15.20;8.90;;;-7.80;99.90;;;;;;5145766;28;20204;-50
2021/12/26 06:51:55;;;;;;;18.17;8.40;;;-7.90;99.90;;;;;;5139204;28;20185;-50
2021/12/26 06:54:25;;;;;;;16.10;8.50;;;-7.90;99.90;;;;;;5122031;28;20181;-49
2021/12/26 06:56:56;;;;;;;26.53;11.23;;;-7.90;99.90;;;;;;5121411;28;20192;-52
2021/12/26 06:59:27;;;;;;;20.77;10.23;;;-7.80;99.90;;;;;;5137922;28;20247;-51
2021/12/26 07:01:57;;;;;;;19.23;10.23;;;-7.80;99.90;;;;;;5105679;28;20186;-50
2021/12/26 07:04:28;;;;;;;18.40;10.23;;;-7.80;99.90;;;;;;5120695;28;20208;-52
2021/12/26 07:06:58;;;;;;;21.80;9.90;;;-7.90;99.90;;;;;;5143617;28;20701;-52
2021/12/26 07:09:29;;;;;;;22.10;11.33;;;-7.90;99.90;;;;;;5143769;28;20228;-50
2021/12/26 07:11:59;;;;;;;17.57;10.53;;;-7.90;99.90;;;;;;5142308;28;20181;-50
2021/12/26 07:14:30;;;;;;;22.10;10.30;;;-8.00;99.90;;;;;;5127526;28;20200;-50
2021/12/26 07:17:00;;;;;;;15.13;9.10;;;-8.00;99.90;;;;;;5142457;28;20204;-50
2021/12/26 07:19:31;;;;;;;17.83;9.43;;;-8.00;99.90;;;;;;5144815;28;20212;-51
2021/12/26 07:22:02;;;;;;;17.23;9.57;;;-8.10;99.90;;;;;;5146149;28;20203;-49
2021/12/26 07:24:33;;;;;;;21.23;11.07;;;-8.10;99.90;;;;;;5124669;28;20206;-49
2021/12/26 07:27:04;;;;;;;22.03;9.77;;;-8.00;99.90;;;;;;5145769;28;20486;-50
2021/12/26 07:29:35;;;;;;;16.30;9.03;;;-8.10;99.90;;;;;;5127274;28;20888;-51
2021/12/26 07:32:07;;;;;;;21.07;9.10;;;-8.00;99.90;;;;;;5124451;28;20528;-50
2021/12/26 07:34:40;;;;;;;14.17;8.70;;;-8.00;99.90;;;;;;5145328;28;20239;-50
2021/12/26 07:37:10;;;;;;;15.70;9.13;;;-8.00;99.90;;;;;;5135695;28;20440;-50
2021/12/26 07:39:41;;;;;;;15.23;8.77;;;-8.00;99.90;;;;;;5128184;28;20509;-50
2021/12/26 07:42:12;;;;;;;13.33;8.40;;;-8.00;99.90;;;;;;5144978;28;20442;-52
2021/12/26 07:44:43;;;;;;;15.00;8.30;;;-8.00;99.90;;;;;;5145233;28;20204;-50
2021/12/26 07:47:13;;;;;;;14.60;8.47;;;-8.00;99.90;;;;;;5146577;28;20653;-49
2021/12/26 07:49:44;;;;;;;20.20;9.23;;;-8.00;99.90;;;;;;5143870;28;20250;-51
2021/12/26 07:52:22;;;;;;;15.17;8.83;;;-7.90;99.90;;;;;;5145626;28;20781;-50
2021/12/26 07:54:53;;;;;;;17.20;8.27;;;-7.90;99.90;;;;;;5126166;28;20180;-49
2021/12/26 07:57:23;;;;;;;15.73;9.27;;;-7.90;99.90;;;;;;5123750;28;20446;-50
2021/12/26 07:59:54;;;;;;;15.03;9.17;;;-7.90;99.90;;;;;;5143672;28;20244;-50
2021/12/26 08:02:24;;;;;;;21.13;8.47;;;-7.90;99.90;;;;;;5137128;28;20245;-48
2021/12/26 08:04:55;;;;;;;17.30;7.97;;;-7.80;99.90;;;;;;5126971;28;20208;-49
2021/12/26 08:07:25;;;;;;;12.13;7.67;;;-7.80;99.90;;;;;;5139256;28;20190;-50
2021/12/26 08:09:56;;;;;;;13.00;7.97;;;-7.70;99.90;;;;;;5135991;28;20274;-49
2021/12/26 08:12:27;;;;;;;13.87;7.70;;;-7.60;99.90;;;;;;5136117;28;20181;-49
2021/12/26 08:14:59;;;;;;;19.87;7.83;;;-7.60;99.90;;;;;;5135803;28;20196;-51
2021/12/26 08:17:30;;;;;;;13.93;8.30;;;-7.60;99.90;;;;;;5126131;28;20268;-50
2021/12/26 08:20:00;;;;;;;14.53;8.47;;;-7.60;99.90;;;;;;5123484;28;20894;-51
2021/12/26 08:22:31;;;;;;;16.37;8.73;;;-7.60;99.90;;;;;;5120647;28;20488;-50
2021/12/26 08:25:03;;;;;;;15.20;9.13;;;-7.50;99.90;;;;;;5135185;28;20215;-50
2021/12/26 08:27:33;;;;;;;21.83;10.07;;;-7.50;99.90;;;;;;5128119;28;20188;-49
2021/12/26 08:30:06;;;;;;;17.93;8.47;;;-7.50;99.90;;;;;;5143071;28;20457;-49
2021/12/26 08:32:39;;;;;;;13.17;8.00;;;-7.50;99.90;;;;;;5142525;28;20181;-51
2021/12/26 08:35:10;;;;;;;12.10;8.27;;;-7.40;99.90;;;;;;5145659;28;20439;-50
2021/12/26 08:37:41;;;;;;;16.50;8.97;;;-7.40;99.90;;;;;;5143880;28;20808;-49
2021/12/26 08:40:13;;;;;;;13.70;7.73;;;-7.40;99.90;;;;;;5143206;28;20212;-49
2021/12/26 08:42:44;;;;;;;14.03;8.40;;;-7.40;99.90;;;;;;5143429;28;20436;-50
2021/12/26 08:45:14;;;;;;;19.20;8.90;;;-7.30;99.90;;;;;;5132089;28;20476;-51
2021/12/26 08:47:47;;;;;;;14.97;8.77;;;-7.20;99.90;;;;;;5144377;28;20260;-51
2021/12/26 08:50:17;;;;;;;24.93;10.23;;;-7.20;99.90;;;;;;5142101;28;20291;-51
2021/12/26 08:52:48;;;;;;;20.33;9.50;;;-7.10;99.90;;;;;;5128835;28;20556;-52
2021/12/26 08:55:20;;;;;;;18.57;10.57;;;-7.10;99.90;;;;;;5144174;28;20626;-52
2021/12/26 08:57:53;;;;;;;18.87;9.23;;;-7.00;99.90;;;;;;5142812;28;20924;-52
2021/12/26 09:00:23;;;;;;;16.00;9.30;;;-6.90;99.90;;;;;;5125403;28;20794;-51
2021/12/26 09:02:55;;;;;;;24.57;10.63;;;-6.80;99.90;;;;;;5124620;28;20443;-51
2021/12/26 09:05:26;;;;;;;20.63;9.93;;;-6.80;99.90;;;;;;5132005;28;20444;-51
2021/12/26 09:07:56;;;;;;;21.70;10.53;;;-6.70;99.90;;;;;;5134075;28;20440;-51
2021/12/26 09:10:27;;;;;;;24.80;10.83;;;-6.60;99.90;;;;;;5137117;28;20229;-51
2021/12/26 09:12:57;;;;;;;20.67;10.40;;;-6.60;99.90;;;;;;5123982;28;20606;-51
2021/12/26 09:15:29;;;;;;;17.97;9.53;;;-6.50;99.90;;;;;;5140555;28;20201;-50
2021/12/26 09:17:59;;;;;;;19.50;9.17;;;-6.40;99.90;;;;;;5134220;28;20206;-51
2021/12/26 09:20:30;;;;;;;17.10;8.07;;;-6.30;99.90;;;;;;5140107;28;20533;-51
2021/12/26 09:23:01;;;;;;;26.33;9.53;;;-6.20;99.90;;;;;;5144019;28;20194;-51
2021/12/26 09:25:32;;;;;;;20.97;10.20;;;-6.20;99.90;;;;;;5135187;28;20438;-51
2021/12/26 09:28:02;;;;;;;19.63;9.50;;;-6.10;99.90;;;;;;5111750;28;20487;-52
2021/12/26 09:30:33;;;;;;;15.97;10.10;;;-6.10;99.90;;;;;;5138406;28;20200;-51
2021/12/26 09:33:04;;;;;;;17.07;10.20;;;-5.90;99.90;;;;;;5124174;28;20170;-51
2021/12/26 09:35:34;;;;;;;27.80;10.50;;;-5.90;99.90;;;;;;5140532;28;20187;-51
2021/12/26 09:38:05;;;;;;;22.57;12.73;;;-5.80;99.90;;;;;;5127549;28;20440;-51
2021/12/26 09:40:36;;;;;;;30.57;12.90;;;-5.80;99.90;;;;;;5143290;28;20220;-51
2021/12/26 09:43:08;;;;;;;29.77;14.23;;;-5.70;99.90;;;;;;5147088;28;20477;-51
2021/12/26 09:45:38;;;;;;;28.27;13.30;;;-5.70;99.90;;;;;;5139944;28;20186;-50
2021/12/26 09:48:09;;;;;;;22.93;12.73;;;-5.60;99.90;;;;;;5129452;28;20795;-51
2021/12/26 09:50:39;;;;;;;19.43;12.00;;;-5.60;99.90;;;;;;5147332;28;20260;-52
2021/12/26 09:53:10;;;;;;;26.93;13.70;;;-5.50;99.90;;;;;;5131495;28;20572;-50
2021/12/26 09:55:41;;;;;;;24.60;13.23;;;-5.50;99.90;;;;;;5145135;28;20196;-53
2021/12/26 09:58:11;;;;;;;25.77;12.43;;;-5.50;99.90;;;;;;5127736;28;20192;-51
2021/12/26 10:00:44;;;;;;;23.73;11.83;;;-5.50;99.90;;;;;;5125781;28;20207;-51
2021/12/26 10:03:20;;;;;;;26.77;13.00;;;-5.40;99.90;;;;;;5136264;28;20205;-52
2021/12/26 10:06:10;;;;;;;18.23;10.43;;;-5.40;99.90;;;;;;5140078;28;20433;-52
2021/12/26 10:08:52;;;;;;;26.87;11.23;;;-5.20;99.90;;;;;;5137612;28;20523;-53
2021/12/26 10:11:29;;;;;;;18.37;10.57;;;-5.20;99.90;;;;;;5136600;28;20473;-52
2021/12/26 10:14:06;;;;;;;17.13;8.23;;;-5.10;99.90;;;;;;5125948;28;20436;-51
2021/12/26 10:16:42;;;;;;;12.70;8.13;;;-5.10;99.90;;;;;;5143647;28;20474;-52
2021/12/26 10:19:13;;;;;;;19.43;8.97;;;-5.00;99.90;;;;;;5121094;28;20893;-51
2021/12/26 10:21:47;;;;;;;17.57;8.77;;;-4.90;99.90;;;;;;5143458;28;20532;-51
2021/12/26 10:24:24;;;;;;;13.90;7.77;;;-4.90;99.90;;;;;;5150067;28;20650;-51
2021/12/26 10:27:05;;;;;;;11.60;7.27;;;-4.80;99.90;;;;;;5122396;28;20599;-51
2021/12/26 10:29:40;;;;;;;11.67;7.23;;;-4.80;99.90;;;;;;5127792;28;20507;-51
2021/12/26 10:32:20;;;;;;;11.50;6.90;;;-4.70;99.90;;;;;;5137459;28;20520;-50
2021/12/26 10:35:00;;;;;;;12.97;7.83;;;-4.70;99.90;;;;;;5118877;28;20531;-51
2021/12/26 10:37:45;;;;;;;10.77;7.07;;;-4.60;99.90;;;;;;5145333;28;20913;-53
2021/12/26 10:40:24;;;;;;;10.30;6.47;;;-4.60;99.90;;;;;;5138542;28;20473;-51
2021/12/26 10:42:58;;;;;;;13.03;8.00;;;-4.50;99.90;;;;;;5136739;28;20441;-50
2021/12/26 10:45:34;;;;;;;12.20;6.23;;;-4.50;99.90;;;;;;5143964;28;20467;-51
2021/12/26 10:48:07;;;;;;;13.20;6.00;;;-4.40;99.90;;;;;;5146573;28;20483;-52
2021/12/26 10:50:40;;;;;;;10.97;7.23;;;-4.40;98.70;;;;;;5132953;28;20463;-50
2021/12/26 10:53:14;;;;;;;12.60;6.90;;;-4.30;97.70;;;;;;5143118;28;20440;-50
2021/12/26 10:55:51;;;;;;;8.87;5.63;;;-4.30;97.90;;;;;;5128050;28;20445;-51
2021/12/26 10:58:24;;;;;;;12.07;6.60;;;-4.20;95.90;;;;;;5123946;28;20496;-52
2021/12/26 11:00:57;;;;;;;15.73;6.23;;;-4.10;99.90;;;;;;5141288;28;20526;-52
2021/12/26 11:03:31;;;;;;;8.30;5.90;;;-4.10;98.50;;;;;;5126804;28;20461;-52
2021/12/26 11:06:06;;;;;;;18.40;7.60;;;-4.00;92.80;;;;;;5124045;28;20516;-52
2021/12/26 11:08:41;;;;;;;14.83;7.00;;;-4.00;87.70;;;;;;5135828;28;21246;-52
2021/12/26 11:11:20;;;;;;;14.43;7.20;;;-4.00;88.00;;;;;;5124880;28;20432;-52
2021/12/26 11:14:01;;;;;;;8.07;5.17;;;-3.90;88.90;;;;;;5142911;28;20869;-52
2021/12/26 11:16:38;;;;;;;11.40;5.10;;;-3.90;88.60;;;;;;5144530;28;20523;-51
2021/12/26 11:19:09;;;;;;;8.93;5.50;;;-3.80;80.60;;;;;;5138884;28;20469;-51
2021/12/26 11:21:40;;;;;;;10.83;5.60;;;-3.70;82.70;;;;;;5113119;28;20996;-53
2021/12/26 11:24:10;;;;;;;5.93;4.40;;;-3.70;71.80;;;;;;5132507;28;20220;-52
2021/12/26 11:26:41;;;;;;;6.53;5.03;;;-3.60;72.30;;;;;;5133531;28;20200;-51
2021/12/26 11:29:11;;;;;;;11.87;5.30;;;-3.50;72.70;;;;;;5117238;28;20292;-51
2021/12/26 11:31:42;;;;;;;7.50;4.27;;;-3.50;73.50;;;;;;5143739;28;20185;-50
2021/12/26 11:34:14;;;;;;;7.13;4.37;;;-3.40;75.20;;;;;;5143796;28;20190;-51
2021/12/26 11:36:48;;;;;;;7.07;5.07;;;-3.40;70.70;;;;;;5141818;28;20681;-51
2021/12/26 11:39:19;;;;;;;6.40;4.23;;;-3.30;68.40;;;;;;5145479;28;20503;-53
2021/12/26 11:42:05;;;;;;;5.20;3.83;;;-3.30;66.90;;;;;;5142130;28;20430;-52
2021/12/26 11:45:10;;;;;;;9.70;4.40;;;-3.20;62.20;;;;;;5144135;28;20576;-50
2021/12/26 11:48:23;;;;;;;6.70;4.30;;;-3.10;63.00;;;;;;5142318;28;20425;-51
2021/12/26 11:51:19;;;;;;;4.47;3.90;;;-3.00;63.40;;;;;;5141372;28;20497;-51
2021/12/26 11:54:32;;;;;;;6.23;4.50;;;-3.00;64.50;;;;;;5104650;28;20445;-51
2021/12/26 11:57:06;;;;;;;9.10;5.00;;;-2.90;60.70;;;;;;5140711;28;20468;-52
2021/12/26 12:00:05;;;;;;;12.93;4.37;;;-2.80;62.30;;;;;;5125235;28;20458;-51
2021/12/26 12:02:44;;;;;;;5.37;3.57;;;-2.80;61.40;;;;;;5127764;28;20456;-51
2021/12/26 12:05:35;;;;;;;4.87;3.60;;;-2.80;61.10;;;;;;5132616;28;20988;-52
2021/12/26 12:08:15;;;;;;;7.60;4.87;;;-2.70;61.90;;;;;;5134690;28;20448;-51
2021/12/26 12:10:54;;;;;;;5.87;3.70;;;-2.80;62.50;;;;;;5136726;28;20433;-51
2021/12/26 12:13:25;;;;;;;12.33;3.83;;;-2.70;62.10;;;;;;5119639;28;20445;-50
2021/12/26 12:16:07;;;;;;;3.53;2.60;;;-2.70;59.30;;;;;;5137403;28;20447;-51
2021/12/26 12:18:58;;;;;;;3.10;2.83;;;-2.70;56.30;;;;;;5134182;28;20315;-51
2021/12/26 12:21:43;;;;;;;13.10;3.73;;;-2.60;55.80;;;;;;5141482;28;20528;-50
2021/12/26 12:24:26;;;;;;;6.00;4.50;;;-2.60;55.50;;;;;;5140281;28;21029;-53
2021/12/26 12:27:00;;;;;;;6.13;3.47;;;-2.60;55.00;;;;;;5132738;28;20438;-53
2021/12/26 12:29:31;;;;;;;4.30;3.27;;;-2.50;54.50;;;;;;5139677;28;20537;-51
2021/12/26 12:32:07;;;;;;;7.83;3.30;;;-2.50;53.10;;;;;;5141085;28;20512;-51
2021/12/26 12:34:47;;;;;;;9.73;3.30;;;-2.50;53.50;;;;;;5139988;28;20187;-49
2021/12/26 12:37:28;;;;;;;9.30;3.80;;;-2.50;54.10;;;;;;5141279;28;20442;-51
2021/12/26 12:40:11;;;;;;;3.20;2.90;;;-2.50;53.80;;;;;;5141221;28;20479;-51
2021/12/26 12:43:03;;;;;;;4.80;3.40;;;-2.50;53.20;;;;;;5122754;28;20433;-50
2021/12/26 12:45:52;;;;;;;4.67;3.17;;;-2.50;53.10;;;;;;5139784;28;20790;-49
2021/12/26 12:48:32;;;;;;;7.03;3.20;;;-2.40;52.70;;;;;;5138337;28;20511;-51
2021/12/26 12:51:26;;;;;;;6.30;3.27;;;-2.40;52.30;;;;;;5121015;28;20482;-53
2021/12/26 12:54:16;;;;;;;4.87;3.10;;;-2.30;53.30;;;;;;5138544;28;20880;-50
2021/12/26 12:56:48;;;;;;;3.77;2.93;;;-2.20;53.20;;;;;;5140529;28;20514;-51
2021/12/26 12:59:20;;;;;;;5.50;3.00;;;-2.30;53.50;;;;;;5139528;28;20464;-51
2021/12/26 13:02:26;;;;;;;3.40;2.77;;;-2.30;54.00;;;;;;5139365;28;20440;-51
2021/12/26 13:04:57;;;;;;;3.50;2.60;;;-2.40;52.90;;;;;;5138679;28;20474;-51
2021/12/26 13:07:30;;;;;;;13.60;5.47;;;-2.40;52.30;;;;;;5133941;28;20584;-51